Time;durP1;ratioP1;P1;durP2;ratioP2;P2;SDS_P1;SDS_P2;PMS_P1;PMS_P2;Temp;Humidity;BMP_temperature;BMP_pressure;BME280_temperature;BME280_humidity;BME280_pressure;Samples;Min_cycle;Max_cycle;Signal;HPM_P1;HPM_P2
2023/01/24 05:01:45;;;;;;;29.00;15.50;;;3.40;99.90;;;;;;5369705;23;21104;-70
2023/01/24 05:04:12;;;;;;;25.80;15.10;;;3.50;99.90;;;;;;4968398;28;20459;-70
2023/01/24 05:06:39;;;;;;;27.30;14.70;;;3.50;99.90;;;;;;4967711;28;20459;-70
2023/01/24 05:09:05;;;;;;;30.50;16.90;;;3.40;99.90;;;;;;4967798;28;20465;-70
2023/01/24 05:11:32;;;;;;;33.00;16.70;;;3.40;99.90;;;;;;4968198;28;20472;-70
2023/01/24 05:13:59;;;;;;;30.83;15.80;;;3.40;99.90;;;;;;4968049;28;20488;-70
2023/01/24 05:16:26;;;;;;;30.30;16.20;;;3.40;99.90;;;;;;4967641;28;20949;-70
2023/01/24 05:18:54;;;;;;;34.57;15.93;;;3.40;99.90;;;;;;4968023;28;20449;-70
2023/01/24 05:21:21;;;;;;;29.63;16.13;;;3.40;99.90;;;;;;4967849;28;20482;-70
2023/01/24 05:23:52;;;;;;;27.27;15.00;;;3.40;99.90;;;;;;4967949;28;20452;-72
2023/01/24 05:26:19;;;;;;;29.27;16.27;;;3.30;99.90;;;;;;4967524;28;20456;-70
2023/01/24 05:28:46;;;;;;;28.20;16.30;;;3.40;99.90;;;;;;4967783;28;20448;-70
2023/01/24 05:31:13;;;;;;;27.80;15.43;;;3.40;99.90;;;;;;4985220;28;20479;-70
2023/01/24 05:33:40;;;;;;;38.63;17.00;;;3.40;99.90;;;;;;4987797;28;20502;-70
2023/01/24 05:36:11;;;;;;;32.13;17.53;;;3.40;99.90;;;;;;4986453;28;20455;-70
2023/01/24 05:38:38;;;;;;;32.00;16.47;;;3.40;99.90;;;;;;4987260;28;20966;-70
2023/01/24 05:41:07;;;;;;;31.93;17.20;;;3.40;99.90;;;;;;4987272;28;20492;-70
2023/01/24 05:43:35;;;;;;;28.87;15.73;;;3.40;99.90;;;;;;4987417;28;20459;-70
2023/01/24 05:46:04;;;;;;;32.57;16.20;;;3.40;99.90;;;;;;4987230;28;20463;-70
2023/01/24 05:48:31;;;;;;;25.87;15.57;;;3.50;99.90;;;;;;4987082;28;20460;-70
2023/01/24 05:50:58;;;;;;;29.07;15.53;;;3.50;99.90;;;;;;4987260;28;20596;-68
2023/01/24 05:53:27;;;;;;;29.10;15.60;;;3.50;99.90;;;;;;4986610;28;21093;-68
2023/01/24 05:55:57;;;;;;;31.33;16.50;;;3.50;99.90;;;;;;4986595;28;20444;-68
2023/01/24 05:58:25;;;;;;;27.67;16.00;;;3.50;99.90;;;;;;4986634;28;20444;-68
2023/01/24 06:00:52;;;;;;;30.00;16.17;;;3.50;99.90;;;;;;4986811;28;20529;-70
2023/01/24 06:03:19;;;;;;;29.47;15.77;;;3.50;99.90;;;;;;4986654;28;20451;-70
2023/01/24 06:05:47;;;;;;;27.07;15.10;;;3.50;99.90;;;;;;4987264;28;20911;-70
2023/01/24 06:08:14;;;;;;;31.57;16.23;;;3.40;99.90;;;;;;4986461;28;20466;-68
2023/01/24 06:10:43;;;;;;;29.77;16.40;;;3.40;99.90;;;;;;4986794;28;20471;-68
2023/01/24 06:13:10;;;;;;;25.87;15.07;;;3.40;99.90;;;;;;4985868;28;20538;-67
2023/01/24 06:15:37;;;;;;;29.47;15.70;;;3.50;99.90;;;;;;4986911;28;20456;-66
2023/01/24 06:18:05;;;;;;;27.40;15.60;;;3.50;99.90;;;;;;4985981;28;21010;-67
2023/01/24 06:20:32;;;;;;;29.17;16.20;;;3.60;99.90;;;;;;4986264;28;20994;-66
2023/01/24 06:23:04;;;;;;;27.50;14.90;;;3.50;99.90;;;;;;4986207;28;20455;-69
2023/01/24 06:25:31;;;;;;;26.40;15.77;;;3.50;99.90;;;;;;4986485;28;20447;-69
2023/01/24 06:28:00;;;;;;;29.53;14.83;;;3.50;99.90;;;;;;4985948;28;20455;-67
2023/01/24 06:30:27;;;;;;;29.60;15.87;;;3.50;99.90;;;;;;4986347;28;20453;-68
2023/01/24 06:33:20;;;;;;;28.73;15.50;;;3.50;99.90;;;;;;4986540;28;20454;-66
2023/01/24 06:36:04;;;;;;;27.77;16.03;;;3.50;99.90;;;;;;4986189;28;20938;-67
2023/01/24 06:38:32;;;;;;;25.40;14.20;;;3.50;99.90;;;;;;4986154;28;20448;-66
2023/01/24 06:41:01;;;;;;;29.30;15.53;;;3.50;99.90;;;;;;4986274;28;20844;-67
2023/01/24 06:43:30;;;;;;;28.43;15.00;;;3.50;99.90;;;;;;4984405;28;21277;-67
2023/01/24 06:45:57;;;;;;;30.03;14.50;;;3.50;99.90;;;;;;4984966;28;20538;-67
2023/01/24 06:48:24;;;;;;;30.87;15.77;;;3.50;99.90;;;;;;4984735;28;20450;-68
2023/01/24 06:50:51;;;;;;;28.57;16.40;;;3.50;99.90;;;;;;4985351;28;20478;-67
2023/01/24 06:53:18;;;;;;;32.20;16.47;;;3.50;99.90;;;;;;4984212;28;20495;-67
2023/01/24 06:55:45;;;;;;;28.73;16.40;;;3.50;99.90;;;;;;4984212;28;21111;-67
2023/01/24 06:58:12;;;;;;;32.87;17.40;;;3.50;99.90;;;;;;4984156;28;20466;-66
2023/01/24 07:00:40;;;;;;;28.53;15.77;;;3.50;99.90;;;;;;4985050;28;20514;-67
2023/01/24 07:03:08;;;;;;;26.33;15.40;;;3.60;99.90;;;;;;4985313;28;20455;-67
2023/01/24 07:05:36;;;;;;;30.83;17.00;;;3.60;99.90;;;;;;4984943;28;20460;-67
2023/01/24 07:08:04;;;;;;;30.63;14.80;;;3.60;99.90;;;;;;4983846;28;20963;-67
2023/01/24 07:10:31;;;;;;;28.47;15.80;;;3.60;99.90;;;;;;4985170;28;20494;-68
2023/01/24 07:12:58;;;;;;;30.57;15.90;;;3.60;99.90;;;;;;4985051;28;20454;-67
2023/01/24 07:15:25;;;;;;;28.33;15.37;;;3.60;99.90;;;;;;4985318;28;20966;-68
2023/01/24 07:17:54;;;;;;;34.17;17.40;;;3.60;99.90;;;;;;4984686;28;20477;-67
2023/01/24 07:20:22;;;;;;;33.77;17.40;;;3.60;99.90;;;;;;4984758;28;20455;-67
2023/01/24 07:22:49;;;;;;;29.90;15.93;;;3.50;99.90;;;;;;4985481;28;20452;-67
2023/01/24 07:25:19;;;;;;;29.97;17.03;;;3.50;99.90;;;;;;4989801;28;20463;-67
2023/01/24 07:27:46;;;;;;;32.47;16.70;;;3.50;99.90;;;;;;4987516;28;20458;-67
2023/01/24 07:30:14;;;;;;;33.43;17.90;;;3.50;99.90;;;;;;4988773;28;20468;-67
2023/01/24 07:32:41;;;;;;;31.83;17.20;;;3.50;99.90;;;;;;4988417;28;20458;-67
2023/01/24 07:35:09;;;;;;;33.47;17.70;;;3.50;99.90;;;;;;4988520;28;21018;-67
2023/01/24 07:37:36;;;;;;;29.23;16.90;;;3.50;99.90;;;;;;4988251;28;20463;-66
2023/01/24 07:40:04;;;;;;;31.83;16.37;;;3.50;99.90;;;;;;4988897;28;20846;-67
2023/01/24 07:42:31;;;;;;;32.67;16.60;;;3.50;99.90;;;;;;4988858;28;20474;-67
2023/01/24 07:44:59;;;;;;;29.70;16.20;;;3.50;99.90;;;;;;4989082;28;20452;-67
2023/01/24 07:47:27;;;;;;;30.77;17.67;;;3.50;99.90;;;;;;4988401;28;20526;-66
2023/01/24 07:49:53;;;;;;;32.67;16.07;;;3.50;99.90;;;;;;4989014;28;20956;-67
2023/01/24 07:52:22;;;;;;;28.80;16.90;;;3.50;99.90;;;;;;4988908;28;20505;-67
2023/01/24 07:54:48;;;;;;;32.77;17.57;;;3.50;99.90;;;;;;4988778;28;20498;-67
2023/01/24 07:57:16;;;;;;;32.60;17.20;;;3.50;99.90;;;;;;4988377;28;20463;-67
2023/01/24 07:59:43;;;;;;;28.40;15.60;;;3.50;99.90;;;;;;4988741;28;20509;-67
2023/01/24 08:02:11;;;;;;;27.33;15.47;;;3.50;99.90;;;;;;4988588;28;20483;-67
2023/01/24 08:04:39;;;;;;;31.20;17.30;;;3.50;99.90;;;;;;4988584;28;20896;-67
2023/01/24 08:07:17;;;;;;;32.90;16.60;;;3.50;99.90;;;;;;4988111;28;20463;-67
2023/01/24 08:09:46;;;;;;;30.87;17.00;;;3.50;99.90;;;;;;4988792;28;20937;-66
2023/01/24 08:12:13;;;;;;;26.37;16.17;;;3.60;99.90;;;;;;4988936;28;20770;-67
2023/01/24 08:14:40;;;;;;;28.33;15.20;;;3.60;99.90;;;;;;4988253;28;20495;-67
2023/01/24 08:17:08;;;;;;;25.50;14.83;;;3.60;99.90;;;;;;4988404;28;20542;-67
2023/01/24 08:19:35;;;;;;;27.07;15.10;;;3.60;99.90;;;;;;4988293;28;20947;-66
2023/01/24 08:22:02;;;;;;;25.30;14.70;;;3.50;99.90;;;;;;4988456;28;20529;-67
2023/01/24 08:24:29;;;;;;;23.70;14.10;;;3.50;99.90;;;;;;4988822;28;20443;-67
2023/01/24 08:26:57;;;;;;;24.17;14.20;;;3.50;99.90;;;;;;4987498;28;20456;-67
2023/01/24 08:29:24;;;;;;;22.00;13.50;;;3.50;99.90;;;;;;4988363;28;20478;-67
2023/01/24 08:31:51;;;;;;;26.13;14.40;;;3.50;99.90;;;;;;4988014;28;21030;-67
2023/01/24 08:34:18;;;;;;;27.13;13.97;;;3.50;99.90;;;;;;4988305;28;20714;-67
2023/01/24 08:36:44;;;;;;;23.67;13.40;;;3.50;99.90;;;;;;4987588;28;20478;-67
2023/01/24 08:39:11;;;;;;;21.30;12.77;;;3.60;99.90;;;;;;4988271;28;20482;-67
2023/01/24 08:41:38;;;;;;;18.40;12.03;;;3.60;99.90;;;;;;4987742;28;20471;-67
2023/01/24 08:44:07;;;;;;;21.40;12.90;;;3.60;99.90;;;;;;4988230;28;20822;-67
2023/01/24 08:46:33;;;;;;;18.70;11.23;;;3.60;99.90;;;;;;4987997;28;20475;-67
2023/01/24 08:49:00;;;;;;;20.07;11.57;;;3.60;99.90;;;;;;4987798;28;20467;-67
2023/01/24 08:51:27;;;;;;;18.77;11.47;;;3.70;99.90;;;;;;4988100;28;20471;-67
2023/01/24 08:53:54;;;;;;;21.90;11.70;;;3.70;99.90;;;;;;4987893;28;20506;-67
2023/01/24 08:56:20;;;;;;;21.10;12.07;;;3.70;99.90;;;;;;4987068;28;20451;-67
2023/01/24 08:58:47;;;;;;;18.90;10.97;;;3.80;99.90;;;;;;4988087;28;20459;-67
2023/01/24 09:01:16;;;;;;;21.60;12.57;;;3.80;99.90;;;;;;4987859;28;21020;-68
2023/01/24 09:03:43;;;;;;;19.30;11.90;;;3.80;99.90;;;;;;4987971;28;20455;-67
2023/01/24 09:06:09;;;;;;;18.87;11.33;;;3.90;99.90;;;;;;4987230;28;20464;-68
2023/01/24 09:08:36;;;;;;;18.13;11.17;;;3.90;99.90;;;;;;4987346;28;20553;-67
2023/01/24 09:11:04;;;;;;;19.97;10.97;;;3.80;99.90;;;;;;4985790;28;20480;-67
2023/01/24 09:13:31;;;;;;;19.63;11.80;;;3.80;99.90;;;;;;4987236;28;20937;-67
2023/01/24 09:15:58;;;;;;;18.77;11.27;;;3.80;99.90;;;;;;4987028;28;20503;-66
2023/01/24 09:18:27;;;;;;;17.67;11.70;;;3.90;99.90;;;;;;4987377;28;20869;-67
2023/01/24 09:20:53;;;;;;;18.50;11.30;;;3.90;99.90;;;;;;4987075;28;20483;-67
2023/01/24 09:23:20;;;;;;;17.33;10.53;;;3.90;99.90;;;;;;4986928;28;20455;-67
2023/01/24 09:25:51;;;;;;;19.03;10.87;;;3.90;99.90;;;;;;4987057;28;20944;-67
2023/01/24 09:28:20;;;;;;;18.13;10.90;;;4.00;99.90;;;;;;4987203;28;20456;-67
2023/01/24 09:30:47;;;;;;;17.20;10.97;;;4.00;99.90;;;;;;4987547;28;20814;-67
2023/01/24 09:33:15;;;;;;;17.80;11.10;;;4.00;99.90;;;;;;4987805;28;20451;-66
2023/01/24 09:35:43;;;;;;;17.30;10.73;;;4.00;99.90;;;;;;4987604;28;20499;-67
2023/01/24 09:38:09;;;;;;;21.03;11.37;;;4.00;99.90;;;;;;4986892;28;20466;-67
2023/01/24 09:40:44;;;;;;;18.43;10.97;;;4.00;99.90;;;;;;4987307;28;20475;-67
2023/01/24 09:43:16;;;;;;;20.80;11.80;;;4.00;99.90;;;;;;4987487;28;20455;-67
2023/01/24 09:45:50;;;;;;;16.80;10.60;;;4.00;99.90;;;;;;4987133;28;20882;-67
2023/01/24 09:48:17;;;;;;;18.70;10.90;;;4.00;99.90;;;;;;4986797;28;20470;-67
2023/01/24 09:50:49;;;;;;;19.20;10.87;;;4.10;99.90;;;;;;4987242;28;20464;-67
2023/01/24 09:53:20;;;;;;;21.20;12.13;;;4.10;99.90;;;;;;4986678;28;21269;-66
2023/01/24 09:55:48;;;;;;;24.53;11.93;;;4.10;99.90;;;;;;4987300;28;20502;-67
2023/01/24 09:58:30;;;;;;;18.70;11.37;;;4.20;99.90;;;;;;4986366;28;20862;-67
2023/01/24 10:00:59;;;;;;;22.87;11.90;;;4.20;99.90;;;;;;4986664;28;21070;-67
2023/01/24 10:03:26;;;;;;;21.43;11.10;;;4.20;99.90;;;;;;4986859;28;20455;-66
2023/01/24 10:05:56;;;;;;;20.30;11.80;;;4.20;99.90;;;;;;4986604;28;20478;-67
2023/01/24 10:08:32;;;;;;;22.67;12.03;;;4.10;99.90;;;;;;4986702;28;20928;-67
2023/01/24 10:11:19;;;;;;;19.13;11.10;;;4.10;99.90;;;;;;4986635;28;20471;-67
2023/01/24 10:14:20;;;;;;;19.00;11.30;;;4.10;99.90;;;;;;4986647;28;20960;-66
2023/01/24 10:17:16;;;;;;;16.60;10.30;;;4.10;99.90;;;;;;4975492;28;20478;-67
2023/01/24 10:20:05;;;;;;;19.90;10.90;;;4.00;99.90;;;;;;4986838;28;21220;-67
2023/01/24 10:23:00;;;;;;;26.77;11.57;;;3.90;99.90;;;;;;4986293;28;20479;-66
2023/01/24 10:25:32;;;;;;;20.17;10.43;;;4.00;99.90;;;;;;4986663;28;20456;-66
2023/01/24 10:28:02;;;;;;;17.20;10.50;;;4.00;99.90;;;;;;4985817;28;20442;-67
2023/01/24 10:30:34;;;;;;;18.63;10.93;;;4.00;99.90;;;;;;4986539;28;20510;-67
2023/01/24 10:33:05;;;;;;;16.83;10.73;;;4.10;99.90;;;;;;4986650;28;20905;-67
2023/01/24 10:35:39;;;;;;;21.90;11.73;;;4.10;99.90;;;;;;4986745;28;20483;-65
2023/01/24 10:38:13;;;;;;;18.63;10.60;;;4.10;99.90;;;;;;4985827;28;20440;-66
2023/01/24 10:40:51;;;;;;;20.80;12.47;;;4.10;99.90;;;;;;4986428;28;20470;-67
2023/01/24 10:43:18;;;;;;;18.53;11.07;;;4.10;99.90;;;;;;4986449;28;20454;-67
2023/01/24 10:45:57;;;;;;;19.30;10.40;;;4.20;99.90;;;;;;4986327;28;20459;-67
2023/01/24 10:48:36;;;;;;;17.33;10.80;;;4.20;99.90;;;;;;4985995;28;21402;-67
2023/01/24 10:51:12;;;;;;;16.50;10.60;;;4.20;99.90;;;;;;4986383;28;20481;-67
2023/01/24 10:53:41;;;;;;;16.83;10.63;;;4.20;99.90;;;;;;4986237;28;20451;-66
2023/01/24 10:56:08;;;;;;;17.57;10.20;;;4.30;99.90;;;;;;4985650;28;20502;-66
2023/01/24 10:58:37;;;;;;;16.10;9.67;;;4.30;99.90;;;;;;4985980;28;20459;-68
2023/01/24 11:01:09;;;;;;;19.97;11.43;;;4.30;99.90;;;;;;4985744;28;20487;-67
2023/01/24 11:03:41;;;;;;;14.90;10.63;;;4.30;99.90;;;;;;4986062;28;20936;-67
2023/01/24 11:06:22;;;;;;;14.40;9.30;;;4.40;99.90;;;;;;4985573;28;20458;-67
2023/01/24 11:08:55;;;;;;;16.27;9.73;;;4.40;99.90;;;;;;4985882;28;20836;-66
2023/01/24 11:11:25;;;;;;;16.23;9.60;;;4.40;99.90;;;;;;4986194;28;20479;-67
2023/01/24 11:13:56;;;;;;;16.53;10.77;;;4.40;99.90;;;;;;4985730;28;20983;-69
2023/01/24 11:16:27;;;;;;;15.17;9.87;;;4.50;99.90;;;;;;4985354;28;20506;-67
2023/01/24 11:18:58;;;;;;;16.40;9.30;;;4.40;99.90;;;;;;4986177;28;20447;-68
2023/01/24 11:21:26;;;;;;;19.07;10.30;;;4.50;99.90;;;;;;4984100;28;21228;-67
2023/01/24 11:24:08;;;;;;;15.93;9.03;;;4.50;99.90;;;;;;4985718;28;20562;-66
2023/01/24 11:26:38;;;;;;;16.83;9.27;;;4.50;99.90;;;;;;4983822;28;21161;-68
2023/01/24 11:29:07;;;;;;;17.40;10.07;;;4.50;99.90;;;;;;4984904;28;20690;-68
2023/01/24 11:31:37;;;;;;;13.90;9.67;;;4.60;99.90;;;;;;4983822;28;20475;-68
2023/01/24 11:34:26;;;;;;;14.20;9.17;;;4.60;99.90;;;;;;4984811;28;20465;-68
2023/01/24 11:37:06;;;;;;;13.27;8.93;;;4.60;99.90;;;;;;4971555;28;20471;-68
2023/01/24 11:39:44;;;;;;;16.33;9.77;;;4.70;99.90;;;;;;4984558;28;20447;-67
2023/01/24 11:42:21;;;;;;;15.13;10.27;;;4.70;99.90;;;;;;4984927;28;20505;-67
2023/01/24 11:45:04;;;;;;;14.87;9.63;;;4.70;99.90;;;;;;4985051;28;20440;-67
2023/01/24 11:47:37;;;;;;;15.20;9.47;;;4.70;99.90;;;;;;4984302;28;20443;-67
2023/01/24 11:50:28;;;;;;;13.40;9.13;;;4.70;99.90;;;;;;4984960;28;20459;-66
2023/01/24 11:53:25;;;;;;;14.67;9.47;;;4.70;99.90;;;;;;4984249;28;20519;-68
2023/01/24 11:56:02;;;;;;;16.53;9.43;;;4.70;99.90;;;;;;4982695;28;21023;-67
2023/01/24 11:58:41;;;;;;;17.47;10.30;;;4.70;99.90;;;;;;4984843;28;20436;-66
2023/01/24 12:01:15;;;;;;;16.03;9.53;;;4.70;99.90;;;;;;4984363;28;20494;-67
2023/01/24 12:04:11;;;;;;;16.57;9.27;;;4.70;99.90;;;;;;4984169;28;20974;-67
2023/01/24 12:06:43;;;;;;;15.20;9.73;;;4.80;99.90;;;;;;4983237;28;21269;-67
2023/01/24 12:09:18;;;;;;;15.47;10.43;;;4.80;99.90;;;;;;4984368;28;20440;-67
2023/01/24 12:11:56;;;;;;;15.83;9.80;;;4.80;99.90;;;;;;4987463;28;20537;-66
2023/01/24 12:14:57;;;;;;;15.67;9.70;;;4.80;99.90;;;;;;4988360;28;20448;-67
2023/01/24 12:17:46;;;;;;;15.83;8.23;;;4.70;99.90;;;;;;4987647;28;20477;-67
2023/01/24 12:20:31;;;;;;;14.93;8.97;;;4.70;99.90;;;;;;4988168;28;20458;-67
2023/01/24 12:23:03;;;;;;;19.03;9.20;;;4.70;99.90;;;;;;4988202;28;21108;-67
2023/01/24 12:25:34;;;;;;;15.80;9.43;;;4.80;99.90;;;;;;4988280;28;20452;-68
2023/01/24 12:28:05;;;;;;;14.40;9.40;;;4.80;99.90;;;;;;4988044;28;20804;-67
2023/01/24 12:30:36;;;;;;;13.40;9.33;;;4.80;99.90;;;;;;4987721;28;20479;-68
2023/01/24 12:33:12;;;;;;;12.53;9.07;;;4.80;99.90;;;;;;4988675;28;20912;-68
2023/01/24 12:35:43;;;;;;;15.23;9.93;;;4.90;99.90;;;;;;4988348;28;20483;-67
2023/01/24 12:38:21;;;;;;;14.50;9.30;;;4.90;99.90;;;;;;4988086;28;20460;-72
2023/01/24 12:40:53;;;;;;;12.43;8.43;;;4.90;99.90;;;;;;4988171;28;20827;-70
2023/01/24 12:43:31;;;;;;;12.80;8.83;;;4.90;99.90;;;;;;4987981;28;20433;-68
2023/01/24 12:46:09;;;;;;;17.83;9.60;;;4.80;99.90;;;;;;4988213;28;20455;-68
2023/01/24 12:48:43;;;;;;;15.43;9.00;;;4.80;99.90;;;;;;4988555;28;20452;-68
2023/01/24 12:51:21;;;;;;;15.03;9.53;;;4.80;99.90;;;;;;4988211;28;20479;-68
2023/01/24 12:53:58;;;;;;;13.83;8.80;;;4.80;99.90;;;;;;4988556;28;20487;-68
2023/01/24 12:56:32;;;;;;;14.33;9.23;;;4.70;99.90;;;;;;4987767;28;20499;-67
2023/01/24 12:59:01;;;;;;;14.97;9.50;;;4.70;99.90;;;;;;4988022;28;20462;-68
2023/01/24 13:01:55;;;;;;;14.47;9.07;;;4.80;99.90;;;;;;4987806;28;20545;-68
2023/01/24 13:04:36;;;;;;;18.03;9.67;;;4.80;99.90;;;;;;4988353;28;20452;-68
2023/01/24 13:07:13;;;;;;;15.60;10.23;;;4.80;99.90;;;;;;4987463;28;20466;-68
2023/01/24 13:09:47;;;;;;;13.93;9.50;;;4.80;99.90;;;;;;4987766;28;20455;-67
2023/01/24 13:12:19;;;;;;;14.57;9.33;;;4.80;99.90;;;;;;4987494;28;21075;-68
2023/01/24 13:14:52;;;;;;;20.93;9.50;;;4.80;99.90;;;;;;4987966;28;20831;-67
2023/01/24 13:17:47;;;;;;;14.00;9.60;;;4.80;99.90;;;;;;4987556;28;20451;-67
2023/01/24 13:20:45;;;;;;;13.33;9.00;;;4.80;99.90;;;;;;4986400;28;20447;-68
2023/01/24 13:23:29;;;;;;;15.67;10.17;;;4.80;99.90;;;;;;4974049;28;20499;-67
2023/01/24 13:26:27;;;;;;;12.97;9.47;;;4.70;99.90;;;;;;4986109;28;20473;-67
2023/01/24 13:29:10;;;;;;;16.97;8.90;;;4.70;99.90;;;;;;4984120;28;20471;-68
2023/01/24 13:31:51;;;;;;;15.50;9.77;;;4.80;99.90;;;;;;4986433;28;20565;-68
2023/01/24 13:34:22;;;;;;;15.60;9.43;;;4.80;99.90;;;;;;4986544;28;20456;-67
2023/01/24 13:36:51;;;;;;;16.63;8.63;;;4.80;99.90;;;;;;4985966;28;20475;-67
2023/01/24 13:39:32;;;;;;;15.77;9.97;;;4.70;99.90;;;;;;4986415;28;20463;-67
2023/01/24 13:42:04;;;;;;;18.07;11.00;;;4.80;99.90;;;;;;4986423;28;20459;-67
2023/01/24 13:44:33;;;;;;;17.50;10.00;;;4.80;99.90;;;;;;4986193;28;20448;-66
2023/01/24 13:47:23;;;;;;;13.23;9.57;;;4.80;99.90;;;;;;4985743;28;20473;-68
2023/01/24 13:50:13;;;;;;;13.83;9.70;;;4.80;99.90;;;;;;4985811;28;20455;-68
2023/01/24 13:52:51;;;;;;;19.80;9.30;;;4.90;99.90;;;;;;4986081;28;20862;-68
2023/01/24 13:56:01;;;;;;;11.63;8.43;;;4.90;99.90;;;;;;4986066;28;20443;-68
2023/01/24 13:58:34;;;;;;;16.23;9.47;;;4.80;99.90;;;;;;4986702;28;20451;-68
2023/01/24 14:01:02;;;;;;;14.97;10.27;;;4.80;99.90;;;;;;4986029;28;20487;-68
2023/01/24 14:03:34;;;;;;;12.50;8.90;;;4.70;99.90;;;;;;4986786;28;20455;-67
2023/01/24 14:06:15;;;;;;;15.83;10.00;;;4.80;99.90;;;;;;4986029;28;20462;-67
2023/01/24 14:09:12;;;;;;;14.93;10.20;;;4.80;99.90;;;;;;4986370;28;20463;-67
2023/01/24 14:11:50;;;;;;;15.00;9.60;;;4.80;99.90;;;;;;4987321;28;20475;-68
2023/01/24 14:14:30;;;;;;;19.83;10.87;;;4.70;99.90;;;;;;4986546;28;21102;-68
2023/01/24 14:17:26;;;;;;;16.20;10.13;;;4.70;99.90;;;;;;4985884;28;21116;-68
2023/01/24 14:19:57;;;;;;;16.70;10.63;;;4.70;99.90;;;;;;4986432;28;20912;-68
2023/01/24 14:22:35;;;;;;;15.90;10.60;;;4.70;99.90;;;;;;4986529;28;20995;-68
2023/01/24 14:25:05;;;;;;;15.57;9.50;;;4.60;99.90;;;;;;4986555;28;20459;-68
2023/01/24 14:27:38;;;;;;;20.03;10.23;;;4.60;99.90;;;;;;4985407;28;20452;-67
2023/01/24 14:30:33;;;;;;;16.30;10.20;;;4.60;99.90;;;;;;4986685;28;20482;-67
2023/01/24 14:33:05;;;;;;;18.60;11.60;;;4.60;99.90;;;;;;4985891;28;20440;-67
2023/01/24 14:35:44;;;;;;;16.23;10.50;;;4.60;99.90;;;;;;4986655;28;20466;-67
2023/01/24 14:38:15;;;;;;;26.57;11.50;;;4.60;99.90;;;;;;4985989;28;20424;-67
2023/01/24 14:40:45;;;;;;;19.50;11.47;;;4.60;99.90;;;;;;4986282;28;20478;-68
2023/01/24 14:43:13;;;;;;;17.70;11.03;;;4.60;99.90;;;;;;4986545;28;20943;-66
2023/01/24 14:45:42;;;;;;;18.70;11.37;;;4.50;99.90;;;;;;4986200;28;20830;-67
2023/01/24 14:48:14;;;;;;;18.30;11.37;;;4.60;99.90;;;;;;4983630;28;20491;-67
2023/01/24 14:50:42;;;;;;;17.13;10.67;;;4.60;99.90;;;;;;4985339;28;20517;-67
2023/01/24 14:53:26;;;;;;;17.40;11.07;;;4.50;99.90;;;;;;4985303;28;20832;-67
2023/01/24 14:55:54;;;;;;;19.03;11.43;;;4.50;99.90;;;;;;4984501;28;20495;-67
2023/01/24 14:58:23;;;;;;;18.77;10.83;;;4.50;99.90;;;;;;4984820;28;20458;-67
2023/01/24 15:00:52;;;;;;;22.03;12.50;;;4.50;99.90;;;;;;4984659;28;20491;-67
2023/01/24 15:03:22;;;;;;;21.27;11.90;;;4.60;99.90;;;;;;4985695;28;20455;-68
2023/01/24 15:05:54;;;;;;;20.73;11.70;;;4.50;99.90;;;;;;4985362;28;20448;-66
2023/01/24 15:08:21;;;;;;;19.73;11.17;;;4.50;99.90;;;;;;4985188;28;20436;-68
2023/01/24 15:11:02;;;;;;;18.77;12.00;;;4.50;99.90;;;;;;4985104;28;20481;-66
2023/01/24 15:13:34;;;;;;;17.77;10.97;;;4.40;99.90;;;;;;4985281;28;21122;-68
2023/01/24 15:16:01;;;;;;;20.17;11.57;;;4.40;99.90;;;;;;4984707;28;20499;-68
2023/01/24 15:18:45;;;;;;;20.70;12.67;;;4.40;99.90;;;;;;4984994;28;20455;-67
2023/01/24 15:21:32;;;;;;;20.67;11.63;;;4.40;99.90;;;;;;4985258;28;20475;-67
2023/01/24 15:24:01;;;;;;;18.37;11.70;;;4.40;99.90;;;;;;4985046;28;20517;-68
2023/01/24 15:26:41;;;;;;;20.00;11.90;;;4.30;99.90;;;;;;4984194;28;20451;-68
2023/01/24 15:29:50;;;;;;;26.07;12.60;;;4.30;99.90;;;;;;4985926;28;20436;-68
2023/01/24 15:32:37;;;;;;;22.43;11.80;;;4.30;99.90;;;;;;4985329;28;21020;-68
2023/01/24 15:35:21;;;;;;;20.67;11.03;;;4.30;99.90;;;;;;4985247;28;20971;-68
2023/01/24 15:38:04;;;;;;;23.20;11.30;;;4.20;99.90;;;;;;4985293;28;20506;-68
2023/01/24 15:40:32;;;;;;;23.30;12.30;;;4.10;99.90;;;;;;4985876;28;20542;-68
2023/01/24 15:45:49;;;;;;;25.50;12.73;;;4.10;99.90;;;;;;4988433;28;20522;-68
2023/01/24 15:48:19;;;;;;;26.43;12.20;;;4.00;99.90;;;;;;4988927;28;20456;-68
2023/01/24 15:53:35;;;;;;;25.87;13.40;;;4.10;99.90;;;;;;4987294;28;20452;-67
2023/01/24 15:56:06;;;;;;;20.73;13.10;;;4.10;99.90;;;;;;4988831;28;20497;-68
2023/01/24 15:58:35;;;;;;;24.23;12.07;;;4.10;99.90;;;;;;4989387;28;20467;-68
2023/01/24 16:01:03;;;;;;;20.33;12.00;;;4.10;99.90;;;;;;4988873;28;20828;-68
2023/01/24 16:03:30;;;;;;;23.03;12.77;;;4.20;99.90;;;;;;4989200;28;20463;-68
2023/01/24 16:05:57;;;;;;;22.23;12.30;;;4.20;99.90;;;;;;4988897;28;20546;-68
2023/01/24 16:08:26;;;;;;;21.27;13.00;;;4.20;99.90;;;;;;4989181;28;20451;-68
2023/01/24 16:10:56;;;;;;;21.00;12.47;;;4.20;99.90;;;;;;4989120;28;20566;-68
2023/01/24 16:13:29;;;;;;;21.70;13.47;;;4.20;99.90;;;;;;4989401;28;20447;-68
2023/01/24 16:15:56;;;;;;;24.83;13.97;;;4.20;99.90;;;;;;4988597;28;20440;-68
2023/01/24 16:18:23;;;;;;;29.07;14.50;;;4.20;99.90;;;;;;4988921;28;20533;-67
2023/01/24 16:20:50;;;;;;;25.93;14.23;;;4.20;99.90;;;;;;4989048;28;20486;-68
2023/01/24 16:23:17;;;;;;;21.00;11.77;;;4.10;99.90;;;;;;4988485;28;20966;-68
2023/01/24 16:25:44;;;;;;;21.60;13.17;;;4.10;99.90;;;;;;4989106;28;20455;-67
2023/01/24 16:28:20;;;;;;;20.53;12.53;;;4.10;99.90;;;;;;4988258;28;20474;-68
2023/01/24 16:30:48;;;;;;;22.17;13.30;;;4.10;99.90;;;;;;4988854;28;20486;-67
2023/01/24 16:33:15;;;;;;;24.07;14.00;;;4.00;99.90;;;;;;4988644;28;20456;-66
2023/01/24 16:35:42;;;;;;;23.43;13.63;;;4.00;99.90;;;;;;4989026;28;20467;-67
2023/01/24 16:38:09;;;;;;;24.27;14.07;;;4.00;99.90;;;;;;4987808;28;20490;-68
2023/01/24 16:40:36;;;;;;;22.40;13.43;;;4.00;99.90;;;;;;4988328;28;20475;-71
2023/01/24 16:43:04;;;;;;;24.93;13.63;;;3.90;99.90;;;;;;4988717;28;20466;-71
2023/01/24 16:45:32;;;;;;;23.80;13.77;;;3.90;99.90;;;;;;4988788;28;20460;-71
2023/01/24 16:48:00;;;;;;;24.87;14.20;;;3.90;99.90;;;;;;4987695;28;20815;-71
2023/01/24 16:50:26;;;;;;;24.47;13.83;;;3.90;99.90;;;;;;4988330;28;20467;-70
2023/01/24 16:52:53;;;;;;;23.07;13.43;;;3.90;99.90;;;;;;4988175;28;20466;-70
2023/01/24 16:55:21;;;;;;;22.37;13.30;;;4.00;99.90;;;;;;4988129;28;20464;-71
2023/01/24 16:57:47;;;;;;;21.80;13.60;;;3.90;99.90;;;;;;4987179;28;20495;-70
2023/01/24 17:00:15;;;;;;;26.23;14.77;;;3.90;99.90;;;;;;4988145;28;20455;-71
2023/01/24 17:02:44;;;;;;;30.07;15.10;;;4.00;99.90;;;;;;4988302;28;20447;-70
2023/01/24 17:05:12;;;;;;;20.70;14.43;;;4.00;99.90;;;;;;4988143;28;20455;-70
2023/01/24 17:07:39;;;;;;;26.10;13.77;;;4.00;99.90;;;;;;4987369;28;20456;-70
2023/01/24 17:10:07;;;;;;;22.33;13.80;;;4.00;99.90;;;;;;4987868;28;20452;-70
2023/01/24 17:12:33;;;;;;;26.03;14.30;;;4.00;99.90;;;;;;4987822;28;20479;-70
2023/01/24 17:15:00;;;;;;;24.90;13.30;;;4.00;99.90;;;;;;4988149;28;20473;-70
2023/01/24 17:17:27;;;;;;;26.07;14.80;;;4.00;99.90;;;;;;4987121;28;20872;-71
2023/01/24 17:19:55;;;;;;;24.90;16.53;;;4.00;99.90;;;;;;4987675;28;20455;-71
2023/01/24 17:22:22;;;;;;;24.80;14.90;;;4.10;99.90;;;;;;4987664;28;20480;-71
2023/01/24 17:24:49;;;;;;;27.70;14.60;;;4.10;99.90;;;;;;4987796;28;20467;-71
2023/01/24 17:27:16;;;;;;;23.83;14.13;;;4.10;99.90;;;;;;4986194;28;20486;-71
2023/01/24 17:29:43;;;;;;;25.93;15.87;;;4.10;99.90;;;;;;4986631;28;20456;-71
2023/01/24 17:32:10;;;;;;;20.77;14.03;;;4.20;99.90;;;;;;4986952;28;20476;-70
2023/01/24 17:34:37;;;;;;;22.83;14.90;;;4.10;99.90;;;;;;4987576;28;20462;-71
2023/01/24 17:37:05;;;;;;;30.67;15.90;;;4.10;99.90;;;;;;4986886;28;20507;-71
2023/01/24 17:39:32;;;;;;;25.97;15.90;;;4.10;99.90;;;;;;4985246;28;20551;-71
2023/01/24 17:41:59;;;;;;;24.33;14.17;;;4.10;99.90;;;;;;4987394;28;20475;-71
2023/01/24 17:44:26;;;;;;;25.53;15.73;;;4.00;99.90;;;;;;4987471;28;20481;-71
2023/01/24 17:46:52;;;;;;;25.00;15.37;;;4.00;99.90;;;;;;4987141;28;20451;-71
2023/01/24 17:49:19;;;;;;;27.50;15.40;;;4.00;99.90;;;;;;4987127;28;20447;-71
2023/01/24 17:51:48;;;;;;;21.93;13.73;;;4.00;99.90;;;;;;4987213;28;20875;-71
2023/01/24 17:54:17;;;;;;;19.80;13.20;;;4.00;99.90;;;;;;4987337;28;20550;-71
2023/01/24 17:56:44;;;;;;;24.90;15.20;;;4.00;99.90;;;;;;4986749;28;20491;-71
2023/01/24 17:59:11;;;;;;;25.93;15.20;;;4.00;99.90;;;;;;4987390;28;20456;-71
2023/01/24 18:01:38;;;;;;;32.70;15.23;;;4.00;99.90;;;;;;4986785;28;20488;-71
2023/01/24 18:04:05;;;;;;;22.07;15.10;;;3.90;99.90;;;;;;4986835;28;21285;-71
2023/01/24 18:06:32;;;;;;;24.60;15.80;;;3.90;99.90;;;;;;4986669;28;20490;-73
2023/01/24 18:08:59;;;;;;;26.57;14.43;;;3.90;99.90;;;;;;4986910;28;20460;-70